sensor_id;sensor_type;location;lat;lon;timestamp;P1;durP1;ratioP1;P2;durP2;ratioP2
64875;SDS011;51369;49.862;9.908;2022-10-23T00:02:20;15.27;;;5.22;;
64875;SDS011;51369;49.862;9.908;2022-10-23T00:04:49;14.70;;;4.88;;
64875;SDS011;51369;49.862;9.908;2022-10-23T00:07:15;14.57;;;5.65;;
64875;SDS011;51369;49.862;9.908;2022-10-23T00:09:41;18.15;;;5.43;;
64875;SDS011;51369;49.862;9.908;2022-10-23T00:12:06;12.50;;;4.90;;
64875;SDS011;51369;49.862;9.908;2022-10-23T00:14:31;12.10;;;5.20;;
64875;SDS011;51369;49.862;9.908;2022-10-23T00:16:57;24.20;;;5.43;;
64875;SDS011;51369;49.862;9.908;2022-10-23T00:19:23;25.90;;;5.40;;
64875;SDS011;51369;49.862;9.908;2022-10-23T00:21:48;14.98;;;6.30;;
64875;SDS011;51369;49.862;9.908;2022-10-23T00:24:14;14.50;;;6.50;;
64875;SDS011;51369;49.862;9.908;2022-10-23T00:26:39;11.48;;;5.63;;
64875;SDS011;51369;49.862;9.908;2022-10-23T00:29:05;11.00;;;4.75;;
64875;SDS011;51369;49.862;9.908;2022-10-23T00:31:31;14.13;;;5.82;;
64875;SDS011;51369;49.862;9.908;2022-10-23T00:33:58;18.27;;;6.30;;
64875;SDS011;51369;49.862;9.908;2022-10-23T00:36:24;19.02;;;6.07;;
64875;SDS011;51369;49.862;9.908;2022-10-23T00:38:50;12.98;;;6.40;;
64875;SDS011;51369;49.862;9.908;2022-10-23T00:41:24;14.38;;;5.78;;
64875;SDS011;51369;49.862;9.908;2022-10-23T00:46:41;14.48;;;6.47;;
64875;SDS011;51369;49.862;9.908;2022-10-23T00:49:07;16.25;;;5.57;;
64875;SDS011;51369;49.862;9.908;2022-10-23T00:51:40;11.68;;;5.63;;
64875;SDS011;51369;49.862;9.908;2022-10-23T00:54:10;6.15;;;4.43;;
64875;SDS011;51369;49.862;9.908;2022-10-23T00:56:38;5.30;;;3.10;;
64875;SDS011;51369;49.862;9.908;2022-10-23T00:59:06;6.32;;;3.60;;
64875;SDS011;51369;49.862;9.908;2022-10-23T01:01:32;4.85;;;3.28;;
64875;SDS011;51369;49.862;9.908;2022-10-23T01:03:57;5.35;;;3.00;;
64875;SDS011;51369;49.862;9.908;2022-10-23T01:06:30;11.35;;;3.67;;
64875;SDS011;51369;49.862;9.908;2022-10-23T01:17:05;8.77;;;3.63;;
64875;SDS011;51369;49.862;9.908;2022-10-23T01:22:27;13.88;;;4.25;;
64875;SDS011;51369;49.862;9.908;2022-10-23T01:25:11;10.57;;;3.33;;
64875;SDS011;51369;49.862;9.908;2022-10-23T01:27:41;7.78;;;3.75;;
64875;SDS011;51369;49.862;9.908;2022-10-23T01:30:15;17.15;;;3.00;;
64875;SDS011;51369;49.862;9.908;2022-10-23T01:35:30;11.10;;;3.92;;
64875;SDS011;51369;49.862;9.908;2022-10-23T01:38:17;14.63;;;3.67;;
64875;SDS011;51369;49.862;9.908;2022-10-23T01:40:54;8.07;;;3.50;;
64875;SDS011;51369;49.862;9.908;2022-10-23T01:43:28;8.60;;;3.30;;
64875;SDS011;51369;49.862;9.908;2022-10-23T01:46:15;12.18;;;3.65;;
64875;SDS011;51369;49.862;9.908;2022-10-23T01:48:43;7.55;;;3.45;;
64875;SDS011;51369;49.862;9.908;2022-10-23T01:51:13;10.60;;;3.33;;
64875;SDS011;51369;49.862;9.908;2022-10-23T01:53:41;5.55;;;3.17;;
64875;SDS011;51369;49.862;9.908;2022-10-23T01:56:12;5.38;;;3.55;;
64875;SDS011;51369;49.862;9.908;2022-10-23T01:58:44;9.23;;;2.80;;
64875;SDS011;51369;49.862;9.908;2022-10-23T02:01:13;5.35;;;3.05;;
64875;SDS011;51369;49.862;9.908;2022-10-23T02:03:47;6.53;;;2.88;;
64875;SDS011;51369;49.862;9.908;2022-10-23T02:06:14;6.75;;;2.92;;
64875;SDS011;51369;49.862;9.908;2022-10-23T02:08:39;8.10;;;3.13;;
64875;SDS011;51369;49.862;9.908;2022-10-23T02:11:16;5.60;;;2.90;;
64875;SDS011;51369;49.862;9.908;2022-10-23T02:13:53;6.25;;;3.13;;
64875;SDS011;51369;49.862;9.908;2022-10-23T02:22:09;10.35;;;3.22;;
64875;SDS011;51369;49.862;9.908;2022-10-23T02:27:13;9.38;;;3.78;;
64875;SDS011;51369;49.862;9.908;2022-10-23T02:29:47;13.18;;;4.38;;
64875;SDS011;51369;49.862;9.908;2022-10-23T02:32:19;4.90;;;3.40;;
64875;SDS011;51369;49.862;9.908;2022-10-23T02:34:48;11.60;;;3.65;;
64875;SDS011;51369;49.862;9.908;2022-10-23T02:37:14;9.93;;;3.22;;
64875;SDS011;51369;49.862;9.908;2022-10-23T02:39:40;8.65;;;3.45;;
64875;SDS011;51369;49.862;9.908;2022-10-23T02:42:17;7.43;;;3.20;;
64875;SDS011;51369;49.862;9.908;2022-10-23T02:47:59;9.88;;;4.57;;
64875;SDS011;51369;49.862;9.908;2022-10-23T02:53:34;21.17;;;8.65;;
64875;SDS011;51369;49.862;9.908;2022-10-23T03:01:42;9.40;;;3.40;;
64875;SDS011;51369;49.862;9.908;2022-10-23T03:04:14;11.48;;;3.10;;
64875;SDS011;51369;49.862;9.908;2022-10-23T03:06:42;8.38;;;2.80;;
64875;SDS011;51369;49.862;9.908;2022-10-23T03:09:13;7.10;;;3.20;;
64875;SDS011;51369;49.862;9.908;2022-10-23T03:11:39;7.82;;;4.10;;
64875;SDS011;51369;49.862;9.908;2022-10-23T03:14:04;6.70;;;3.17;;
64875;SDS011;51369;49.862;9.908;2022-10-23T03:16:30;11.07;;;2.83;;
64875;SDS011;51369;49.862;9.908;2022-10-23T03:18:56;15.30;;;3.30;;
64875;SDS011;51369;49.862;9.908;2022-10-23T03:21:21;12.63;;;2.75;;
64875;SDS011;51369;49.862;9.908;2022-10-23T03:23:50;8.15;;;3.30;;
64875;SDS011;51369;49.862;9.908;2022-10-23T03:26:20;10.07;;;2.80;;
64875;SDS011;51369;49.862;9.908;2022-10-23T03:28:46;6.00;;;2.70;;
64875;SDS011;51369;49.862;9.908;2022-10-23T03:31:13;7.63;;;2.97;;
64875;SDS011;51369;49.862;9.908;2022-10-23T03:33:39;11.07;;;2.90;;
64875;SDS011;51369;49.862;9.908;2022-10-23T03:36:07;3.85;;;2.60;;
64875;SDS011;51369;49.862;9.908;2022-10-23T03:38:33;9.27;;;2.65;;
64875;SDS011;51369;49.862;9.908;2022-10-23T03:41:00;8.27;;;3.25;;
64875;SDS011;51369;49.862;9.908;2022-10-23T03:43:26;7.55;;;3.10;;
64875;SDS011;51369;49.862;9.908;2022-10-23T03:45:52;4.80;;;3.05;;
64875;SDS011;51369;49.862;9.908;2022-10-23T03:48:17;9.48;;;3.33;;
64875;SDS011;51369;49.862;9.908;2022-10-23T03:50:43;6.05;;;3.33;;
64875;SDS011;51369;49.862;9.908;2022-10-23T03:53:09;4.75;;;2.60;;
64875;SDS011;51369;49.862;9.908;2022-10-23T03:55:34;14.48;;;3.17;;
64875;SDS011;51369;49.862;9.908;2022-10-23T03:58:00;22.52;;;4.78;;
64875;SDS011;51369;49.862;9.908;2022-10-23T04:00:25;10.15;;;3.10;;
64875;SDS011;51369;49.862;9.908;2022-10-23T04:02:51;6.85;;;2.95;;
64875;SDS011;51369;49.862;9.908;2022-10-23T04:05:16;7.63;;;2.63;;
64875;SDS011;51369;49.862;9.908;2022-10-23T04:07:51;8.38;;;3.38;;
64875;SDS011;51369;49.862;9.908;2022-10-23T04:10:16;19.40;;;3.00;;
64875;SDS011;51369;49.862;9.908;2022-10-23T04:12:42;12.55;;;3.45;;
64875;SDS011;51369;49.862;9.908;2022-10-23T04:15:08;7.10;;;3.10;;
64875;SDS011;51369;49.862;9.908;2022-10-23T04:17:34;6.25;;;3.13;;
64875;SDS011;51369;49.862;9.908;2022-10-23T04:19:59;7.32;;;3.20;;
64875;SDS011;51369;49.862;9.908;2022-10-23T04:22:25;10.65;;;3.30;;
64875;SDS011;51369;49.862;9.908;2022-10-23T04:24:50;13.20;;;3.85;;
64875;SDS011;51369;49.862;9.908;2022-10-23T04:27:16;13.35;;;3.25;;
64875;SDS011;51369;49.862;9.908;2022-10-23T04:29:42;8.95;;;3.55;;
64875;SDS011;51369;49.862;9.908;2022-10-23T04:32:08;6.07;;;3.40;;
64875;SDS011;51369;49.862;9.908;2022-10-23T04:34:34;6.43;;;3.50;;
64875;SDS011;51369;49.862;9.908;2022-10-23T04:37:00;5.93;;;3.47;;
64875;SDS011;51369;49.862;9.908;2022-10-23T04:39:26;9.48;;;4.00;;
64875;SDS011;51369;49.862;9.908;2022-10-23T04:41:51;9.50;;;4.22;;
64875;SDS011;51369;49.862;9.908;2022-10-23T04:44:18;4.97;;;3.40;;
64875;SDS011;51369;49.862;9.908;2022-10-23T04:46:44;5.00;;;4.13;;
64875;SDS011;51369;49.862;9.908;2022-10-23T04:49:09;9.65;;;4.13;;
64875;SDS011;51369;49.862;9.908;2022-10-23T04:51:47;7.90;;;4.18;;
64875;SDS011;51369;49.862;9.908;2022-10-23T04:54:35;5.45;;;3.63;;
64875;SDS011;51369;49.862;9.908;2022-10-23T04:57:20;8.73;;;4.22;;
64875;SDS011;51369;49.862;9.908;2022-10-23T05:00:12;12.23;;;6.97;;
64875;SDS011;51369;49.862;9.908;2022-10-23T05:02:47;8.35;;;4.95;;
64875;SDS011;51369;49.862;9.908;2022-10-23T05:05:15;9.77;;;5.32;;
64875;SDS011;51369;49.862;9.908;2022-10-23T05:07:52;9.15;;;5.43;;
64875;SDS011;51369;49.862;9.908;2022-10-23T05:10:23;10.65;;;4.53;;
64875;SDS011;51369;49.862;9.908;2022-10-23T05:13:07;8.63;;;4.40;;
64875;SDS011;51369;49.862;9.908;2022-10-23T05:15:33;7.95;;;4.30;;
64875;SDS011;51369;49.862;9.908;2022-10-23T05:18:03;13.20;;;5.60;;
64875;SDS011;51369;49.862;9.908;2022-10-23T05:20:36;6.82;;;3.97;;
64875;SDS011;51369;49.862;9.908;2022-10-23T05:23:04;14.18;;;3.92;;
64875;SDS011;51369;49.862;9.908;2022-10-23T05:25:33;4.85;;;4.30;;
64875;SDS011;51369;49.862;9.908;2022-10-23T05:28:10;8.68;;;4.82;;
64875;SDS011;51369;49.862;9.908;2022-10-23T05:30:35;8.15;;;4.55;;
64875;SDS011;51369;49.862;9.908;2022-10-23T05:33:02;6.10;;;4.15;;
64875;SDS011;51369;49.862;9.908;2022-10-23T05:35:32;5.05;;;4.55;;
64875;SDS011;51369;49.862;9.908;2022-10-23T05:37:58;43.80;;;6.05;;
64875;SDS011;51369;49.862;9.908;2022-10-23T05:40:25;28.95;;;6.82;;
64875;SDS011;51369;49.862;9.908;2022-10-23T05:43:02;15.48;;;5.38;;
64875;SDS011;51369;49.862;9.908;2022-10-23T05:45:51;40.15;;;6.43;;
64875;SDS011;51369;49.862;9.908;2022-10-23T05:48:24;20.88;;;5.13;;
64875;SDS011;51369;49.862;9.908;2022-10-23T05:51:09;11.10;;;5.45;;
64875;SDS011;51369;49.862;9.908;2022-10-23T05:53:47;11.57;;;4.57;;
64875;SDS011;51369;49.862;9.908;2022-10-23T05:56:20;23.00;;;5.80;;
64875;SDS011;51369;49.862;9.908;2022-10-23T05:58:56;9.43;;;5.30;;
64875;SDS011;51369;49.862;9.908;2022-10-23T06:01:44;10.60;;;5.75;;
64875;SDS011;51369;49.862;9.908;2022-10-23T06:04:13;7.05;;;5.45;;
64875;SDS011;51369;49.862;9.908;2022-10-23T06:07:14;7.90;;;5.30;;
64875;SDS011;51369;49.862;9.908;2022-10-23T06:09:42;14.63;;;5.95;;
64875;SDS011;51369;49.862;9.908;2022-10-23T06:12:07;7.55;;;5.78;;
64875;SDS011;51369;49.862;9.908;2022-10-23T06:14:33;10.73;;;6.40;;
64875;SDS011;51369;49.862;9.908;2022-10-23T06:16:59;11.45;;;6.78;;
64875;SDS011;51369;49.862;9.908;2022-10-23T06:19:24;7.70;;;6.35;;
64875;SDS011;51369;49.862;9.908;2022-10-23T06:21:53;8.95;;;6.45;;
64875;SDS011;51369;49.862;9.908;2022-10-23T06:24:23;8.35;;;6.38;;
64875;SDS011;51369;49.862;9.908;2022-10-23T06:26:59;7.28;;;6.07;;
64875;SDS011;51369;49.862;9.908;2022-10-23T06:29:36;64.82;;;34.30;;
64875;SDS011;51369;49.862;9.908;2022-10-23T06:32:02;38.83;;;22.15;;
64875;SDS011;51369;49.862;9.908;2022-10-23T06:34:27;13.60;;;9.55;;
64875;SDS011;51369;49.862;9.908;2022-10-23T06:36:53;15.05;;;9.02;;
64875;SDS011;51369;49.862;9.908;2022-10-23T06:39:32;16.02;;;10.75;;
64875;SDS011;51369;49.862;9.908;2022-10-23T06:42:12;13.85;;;12.07;;
64875;SDS011;51369;49.862;9.908;2022-10-23T06:44:52;14.32;;;10.23;;
64875;SDS011;51369;49.862;9.908;2022-10-23T06:47:37;11.00;;;8.70;;
64875;SDS011;51369;49.862;9.908;2022-10-23T06:50:22;14.95;;;10.15;;
64875;SDS011;51369;49.862;9.908;2022-10-23T06:52:49;13.20;;;9.98;;
64875;SDS011;51369;49.862;9.908;2022-10-23T06:55:16;11.43;;;8.80;;
64875;SDS011;51369;49.862;9.908;2022-10-23T06:57:43;12.20;;;9.52;;
64875;SDS011;51369;49.862;9.908;2022-10-23T07:00:08;22.10;;;14.75;;
64875;SDS011;51369;49.862;9.908;2022-10-23T07:02:43;29.38;;;18.48;;
64875;SDS011;51369;49.862;9.908;2022-10-23T07:05:09;33.15;;;22.17;;
64875;SDS011;51369;49.862;9.908;2022-10-23T07:07:34;28.95;;;20.52;;
64875;SDS011;51369;49.862;9.908;2022-10-23T07:10:00;26.60;;;18.20;;
64875;SDS011;51369;49.862;9.908;2022-10-23T07:12:37;16.10;;;11.15;;
64875;SDS011;51369;49.862;9.908;2022-10-23T07:15:22;20.73;;;17.05;;
64875;SDS011;51369;49.862;9.908;2022-10-23T07:17:47;20.92;;;14.90;;
64875;SDS011;51369;49.862;9.908;2022-10-23T07:20:12;17.10;;;11.55;;
64875;SDS011;51369;49.862;9.908;2022-10-23T07:22:38;16.77;;;12.70;;
64875;SDS011;51369;49.862;9.908;2022-10-23T07:25:13;16.23;;;11.50;;
64875;SDS011;51369;49.862;9.908;2022-10-23T07:27:39;12.68;;;10.65;;
64875;SDS011;51369;49.862;9.908;2022-10-23T07:30:07;13.25;;;9.63;;
64875;SDS011;51369;49.862;9.908;2022-10-23T07:32:41;17.20;;;8.68;;
64875;SDS011;51369;49.862;9.908;2022-10-23T07:35:26;15.98;;;9.80;;
64875;SDS011;51369;49.862;9.908;2022-10-23T07:37:58;13.77;;;9.20;;
64875;SDS011;51369;49.862;9.908;2022-10-23T07:40:24;15.93;;;11.18;;
64875;SDS011;51369;49.862;9.908;2022-10-23T07:42:52;13.25;;;9.70;;
64875;SDS011;51369;49.862;9.908;2022-10-23T07:45:18;12.70;;;9.82;;
64875;SDS011;51369;49.862;9.908;2022-10-23T07:47:48;12.63;;;9.73;;
64875;SDS011;51369;49.862;9.908;2022-10-23T07:50:16;14.82;;;11.13;;
64875;SDS011;51369;49.862;9.908;2022-10-23T07:52:41;13.05;;;9.88;;
64875;SDS011;51369;49.862;9.908;2022-10-23T07:55:12;18.02;;;10.38;;
64875;SDS011;51369;49.862;9.908;2022-10-23T07:57:51;13.25;;;10.02;;
64875;SDS011;51369;49.862;9.908;2022-10-23T08:00:40;17.17;;;9.85;;
64875;SDS011;51369;49.862;9.908;2022-10-23T08:03:13;15.52;;;9.50;;
64875;SDS011;51369;49.862;9.908;2022-10-23T08:05:39;14.35;;;9.80;;
64875;SDS011;51369;49.862;9.908;2022-10-23T08:08:04;13.35;;;10.00;;
64875;SDS011;51369;49.862;9.908;2022-10-23T08:10:30;17.27;;;11.68;;
64875;SDS011;51369;49.862;9.908;2022-10-23T08:12:57;20.95;;;12.32;;
64875;SDS011;51369;49.862;9.908;2022-10-23T08:15:41;18.92;;;12.68;;
64875;SDS011;51369;49.862;9.908;2022-10-23T08:18:23;20.42;;;13.95;;
64875;SDS011;51369;49.862;9.908;2022-10-23T08:20:50;23.30;;;14.98;;
64875;SDS011;51369;49.862;9.908;2022-10-23T08:23:17;24.10;;;14.85;;
64875;SDS011;51369;49.862;9.908;2022-10-23T08:25:44;26.20;;;15.30;;
64875;SDS011;51369;49.862;9.908;2022-10-23T08:28:11;22.98;;;14.70;;
64875;SDS011;51369;49.862;9.908;2022-10-23T08:30:48;24.50;;;14.68;;
64875;SDS011;51369;49.862;9.908;2022-10-23T08:33:13;23.63;;;13.35;;
64875;SDS011;51369;49.862;9.908;2022-10-23T08:35:39;18.05;;;9.45;;
64875;SDS011;51369;49.862;9.908;2022-10-23T08:38:06;21.48;;;12.35;;
64875;SDS011;51369;49.862;9.908;2022-10-23T08:40:37;19.92;;;12.75;;
64875;SDS011;51369;49.862;9.908;2022-10-23T08:43:41;19.85;;;9.98;;
64875;SDS011;51369;49.862;9.908;2022-10-23T08:54:53;23.85;;;8.57;;
64875;SDS011;51369;49.862;9.908;2022-10-23T08:57:26;16.63;;;9.00;;
64875;SDS011;51369;49.862;9.908;2022-10-23T09:00:10;10.23;;;7.28;;
64875;SDS011;51369;49.862;9.908;2022-10-23T09:02:45;9.73;;;7.07;;
64875;SDS011;51369;49.862;9.908;2022-10-23T09:05:28;16.20;;;7.40;;
64875;SDS011;51369;49.862;9.908;2022-10-23T09:16:06;10.70;;;7.47;;
64875;SDS011;51369;49.862;9.908;2022-10-23T09:18:44;10.35;;;7.30;;
64875;SDS011;51369;49.862;9.908;2022-10-23T09:21:11;10.98;;;6.78;;
64875;SDS011;51369;49.862;9.908;2022-10-23T09:23:37;15.13;;;6.80;;
64875;SDS011;51369;49.862;9.908;2022-10-23T09:26:09;8.73;;;7.00;;
64875;SDS011;51369;49.862;9.908;2022-10-23T09:28:45;10.40;;;6.05;;
64875;SDS011;51369;49.862;9.908;2022-10-23T09:31:16;7.88;;;5.53;;
64875;SDS011;51369;49.862;9.908;2022-10-23T09:33:58;8.75;;;5.25;;
64875;SDS011;51369;49.862;9.908;2022-10-23T09:36:26;6.97;;;5.07;;
64875;SDS011;51369;49.862;9.908;2022-10-23T09:38:54;9.48;;;4.88;;
64875;SDS011;51369;49.862;9.908;2022-10-23T09:41:25;8.43;;;4.53;;
64875;SDS011;51369;49.862;9.908;2022-10-23T09:46:44;6.15;;;5.10;;
64875;SDS011;51369;49.862;9.908;2022-10-23T09:49:15;5.10;;;3.90;;
64875;SDS011;51369;49.862;9.908;2022-10-23T09:51:59;7.18;;;4.47;;
64875;SDS011;51369;49.862;9.908;2022-10-23T09:54:35;12.65;;;3.90;;
64875;SDS011;51369;49.862;9.908;2022-10-23T09:57:05;6.45;;;3.67;;
64875;SDS011;51369;49.862;9.908;2022-10-23T09:59:50;5.85;;;4.00;;
64875;SDS011;51369;49.862;9.908;2022-10-23T10:02:19;6.53;;;3.47;;
64875;SDS011;51369;49.862;9.908;2022-10-23T10:08:23;4.07;;;3.22;;
64875;SDS011;51369;49.862;9.908;2022-10-23T10:10:55;4.78;;;3.88;;
64875;SDS011;51369;49.862;9.908;2022-10-23T10:18:56;5.25;;;3.40;;
64875;SDS011;51369;49.862;9.908;2022-10-23T10:21:34;4.30;;;3.42;;
64875;SDS011;51369;49.862;9.908;2022-10-23T10:24:29;3.42;;;3.03;;
64875;SDS011;51369;49.862;9.908;2022-10-23T10:27:19;3.80;;;3.33;;
64875;SDS011;51369;49.862;9.908;2022-10-23T10:30:02;4.03;;;3.05;;
64875;SDS011;51369;49.862;9.908;2022-10-23T10:32:44;8.35;;;3.45;;
64875;SDS011;51369;49.862;9.908;2022-10-23T10:35:21;3.90;;;3.25;;
64875;SDS011;51369;49.862;9.908;2022-10-23T10:43:42;4.95;;;2.95;;
64875;SDS011;51369;49.862;9.908;2022-10-23T10:51:39;3.70;;;2.75;;
64875;SDS011;51369;49.862;9.908;2022-10-23T10:57:01;2.28;;;2.05;;
64875;SDS011;51369;49.862;9.908;2022-10-23T10:59:37;4.05;;;3.20;;
64875;SDS011;51369;49.862;9.908;2022-10-23T11:04:53;6.30;;;2.28;;
64875;SDS011;51369;49.862;9.908;2022-10-23T11:07:28;4.03;;;1.95;;
64875;SDS011;51369;49.862;9.908;2022-10-23T11:10:02;2.80;;;2.30;;
64875;SDS011;51369;49.862;9.908;2022-10-23T11:12:37;3.50;;;2.38;;
64875;SDS011;51369;49.862;9.908;2022-10-23T11:15:10;4.35;;;1.70;;
64875;SDS011;51369;49.862;9.908;2022-10-23T11:17:42;6.22;;;2.30;;
64875;SDS011;51369;49.862;9.908;2022-10-23T11:20:27;6.75;;;2.20;;
64875;SDS011;51369;49.862;9.908;2022-10-23T11:28:44;3.28;;;1.88;;
64875;SDS011;51369;49.862;9.908;2022-10-23T11:34:00;4.93;;;2.05;;
64875;SDS011;51369;49.862;9.908;2022-10-23T11:39:14;1.83;;;1.60;;
64875;SDS011;51369;49.862;9.908;2022-10-23T11:41:53;5.63;;;1.90;;
64875;SDS011;51369;49.862;9.908;2022-10-23T11:44:24;3.63;;;2.00;;
64875;SDS011;51369;49.862;9.908;2022-10-23T11:46:57;3.15;;;1.92;;
64875;SDS011;51369;49.862;9.908;2022-10-23T11:49:28;8.68;;;1.92;;
64875;SDS011;51369;49.862;9.908;2022-10-23T11:52:03;2.88;;;1.70;;
64875;SDS011;51369;49.862;9.908;2022-10-23T11:54:30;5.15;;;1.77;;
64875;SDS011;51369;49.862;9.908;2022-10-23T12:05:02;2.85;;;1.73;;
64875;SDS011;51369;49.862;9.908;2022-10-23T12:07:34;1.98;;;1.45;;
64875;SDS011;51369;49.862;9.908;2022-10-23T12:10:03;7.18;;;1.90;;
64875;SDS011;51369;49.862;9.908;2022-10-23T12:12:37;4.43;;;1.90;;
64875;SDS011;51369;49.862;9.908;2022-10-23T12:15:08;3.95;;;1.90;;
64875;SDS011;51369;49.862;9.908;2022-10-23T12:17:40;2.13;;;1.90;;
64875;SDS011;51369;49.862;9.908;2022-10-23T12:22:37;3.35;;;1.77;;
64875;SDS011;51369;49.862;9.908;2022-10-23T12:25:15;4.53;;;1.90;;
64875;SDS011;51369;49.862;9.908;2022-10-23T12:30:52;4.80;;;2.08;;
64875;SDS011;51369;49.862;9.908;2022-10-23T12:38:31;3.97;;;1.95;;
64875;SDS011;51369;49.862;9.908;2022-10-23T12:41:14;3.80;;;1.95;;
64875;SDS011;51369;49.862;9.908;2022-10-23T12:43:48;4.10;;;2.03;;
64875;SDS011;51369;49.862;9.908;2022-10-23T12:46:21;5.13;;;2.17;;
64875;SDS011;51369;49.862;9.908;2022-10-23T12:51:27;1.98;;;1.67;;
64875;SDS011;51369;49.862;9.908;2022-10-23T12:53:55;2.83;;;1.70;;
64875;SDS011;51369;49.862;9.908;2022-10-23T12:56:20;4.57;;;1.85;;
64875;SDS011;51369;49.862;9.908;2022-10-23T12:58:47;4.60;;;1.83;;
64875;SDS011;51369;49.862;9.908;2022-10-23T13:01:23;14.25;;;2.90;;
64875;SDS011;51369;49.862;9.908;2022-10-23T13:03:58;6.32;;;3.63;;
64875;SDS011;51369;49.862;9.908;2022-10-23T13:06:29;10.05;;;4.15;;
64875;SDS011;51369;49.862;9.908;2022-10-23T13:08:56;8.40;;;2.00;;
64875;SDS011;51369;49.862;9.908;2022-10-23T13:11:43;5.43;;;1.70;;
64875;SDS011;51369;49.862;9.908;2022-10-23T13:14:12;3.03;;;1.83;;
64875;SDS011;51369;49.862;9.908;2022-10-23T13:16:38;2.67;;;1.63;;
64875;SDS011;51369;49.862;9.908;2022-10-23T13:19:04;1.83;;;1.30;;
64875;SDS011;51369;49.862;9.908;2022-10-23T13:21:29;1.48;;;1.30;;
64875;SDS011;51369;49.862;9.908;2022-10-23T13:23:56;2.72;;;1.65;;
64875;SDS011;51369;49.862;9.908;2022-10-23T13:26:23;2.15;;;1.75;;
64875;SDS011;51369;49.862;9.908;2022-10-23T13:28:57;2.92;;;1.50;;
64875;SDS011;51369;49.862;9.908;2022-10-23T13:31:28;3.65;;;1.60;;
64875;SDS011;51369;49.862;9.908;2022-10-23T13:36:23;2.63;;;1.70;;
64875;SDS011;51369;49.862;9.908;2022-10-23T13:41:26;1.70;;;1.60;;
64875;SDS011;51369;49.862;9.908;2022-10-23T13:43:52;3.13;;;1.60;;
64875;SDS011;51369;49.862;9.908;2022-10-23T13:46:19;2.33;;;1.88;;
64875;SDS011;51369;49.862;9.908;2022-10-23T13:48:46;2.42;;;2.08;;
64875;SDS011;51369;49.862;9.908;2022-10-23T13:51:18;2.63;;;1.75;;
64875;SDS011;51369;49.862;9.908;2022-10-23T13:53:46;2.28;;;1.98;;
64875;SDS011;51369;49.862;9.908;2022-10-23T13:56:12;2.13;;;1.80;;
64875;SDS011;51369;49.862;9.908;2022-10-23T13:58:38;5.25;;;2.28;;
64875;SDS011;51369;49.862;9.908;2022-10-23T14:01:04;3.55;;;2.42;;
64875;SDS011;51369;49.862;9.908;2022-10-23T14:03:30;3.25;;;2.40;;
64875;SDS011;51369;49.862;9.908;2022-10-23T14:05:56;5.28;;;2.20;;
64875;SDS011;51369;49.862;9.908;2022-10-23T14:08:21;5.00;;;2.10;;
64875;SDS011;51369;49.862;9.908;2022-10-23T14:10:47;3.28;;;2.40;;
64875;SDS011;51369;49.862;9.908;2022-10-23T14:13:12;3.20;;;2.22;;
64875;SDS011;51369;49.862;9.908;2022-10-23T14:15:38;4.45;;;2.45;;
64875;SDS011;51369;49.862;9.908;2022-10-23T14:18:03;2.40;;;2.03;;
64875;SDS011;51369;49.862;9.908;2022-10-23T14:20:29;7.43;;;3.22;;
64875;SDS011;51369;49.862;9.908;2022-10-23T14:22:54;2.40;;;2.20;;
64875;SDS011;51369;49.862;9.908;2022-10-23T14:25:20;3.00;;;2.22;;
64875;SDS011;51369;49.862;9.908;2022-10-23T14:27:45;4.13;;;2.42;;
64875;SDS011;51369;49.862;9.908;2022-10-23T14:30:11;3.50;;;2.45;;
64875;SDS011;51369;49.862;9.908;2022-10-23T14:32:37;2.63;;;2.40;;
64875;SDS011;51369;49.862;9.908;2022-10-23T14:35:03;3.10;;;2.38;;
64875;SDS011;51369;49.862;9.908;2022-10-23T14:37:29;4.22;;;2.17;;
64875;SDS011;51369;49.862;9.908;2022-10-23T14:39:55;5.65;;;2.20;;
64875;SDS011;51369;49.862;9.908;2022-10-23T14:42:21;4.40;;;2.47;;
64875;SDS011;51369;49.862;9.908;2022-10-23T14:44:46;5.82;;;2.20;;
64875;SDS011;51369;49.862;9.908;2022-10-23T14:47:14;5.72;;;2.35;;
64875;SDS011;51369;49.862;9.908;2022-10-23T14:49:41;5.82;;;2.28;;
64875;SDS011;51369;49.862;9.908;2022-10-23T14:52:08;4.38;;;2.42;;
64875;SDS011;51369;49.862;9.908;2022-10-23T14:54:33;3.70;;;1.80;;
64875;SDS011;51369;49.862;9.908;2022-10-23T14:57:00;4.88;;;2.20;;
64875;SDS011;51369;49.862;9.908;2022-10-23T14:59:26;4.22;;;2.50;;
64875;SDS011;51369;49.862;9.908;2022-10-23T15:01:52;5.43;;;1.95;;
64875;SDS011;51369;49.862;9.908;2022-10-23T15:04:17;3.00;;;1.83;;
64875;SDS011;51369;49.862;9.908;2022-10-23T15:06:43;4.80;;;1.90;;
64875;SDS011;51369;49.862;9.908;2022-10-23T15:09:10;5.05;;;2.08;;
64875;SDS011;51369;49.862;9.908;2022-10-23T15:11:35;4.32;;;1.90;;
64875;SDS011;51369;49.862;9.908;2022-10-23T15:14:01;2.13;;;1.92;;
64875;SDS011;51369;49.862;9.908;2022-10-23T15:16:26;5.25;;;2.03;;
64875;SDS011;51369;49.862;9.908;2022-10-23T15:18:52;2.72;;;1.98;;
64875;SDS011;51369;49.862;9.908;2022-10-23T15:21:17;2.80;;;1.70;;
64875;SDS011;51369;49.862;9.908;2022-10-23T15:23:44;2.83;;;1.95;;
64875;SDS011;51369;49.862;9.908;2022-10-23T15:26:12;6.82;;;1.80;;
64875;SDS011;51369;49.862;9.908;2022-10-23T15:28:43;2.40;;;1.60;;
64875;SDS011;51369;49.862;9.908;2022-10-23T15:33:52;3.38;;;1.85;;
64875;SDS011;51369;49.862;9.908;2022-10-23T15:36:18;5.05;;;1.80;;
64875;SDS011;51369;49.862;9.908;2022-10-23T15:38:43;3.13;;;2.00;;
64875;SDS011;51369;49.862;9.908;2022-10-23T15:41:12;4.25;;;1.90;;
64875;SDS011;51369;49.862;9.908;2022-10-23T15:43:39;2.10;;;1.90;;
64875;SDS011;51369;49.862;9.908;2022-10-23T15:46:05;2.00;;;1.80;;
64875;SDS011;51369;49.862;9.908;2022-10-23T15:48:30;4.93;;;2.25;;
64875;SDS011;51369;49.862;9.908;2022-10-23T15:50:55;4.65;;;2.35;;
64875;SDS011;51369;49.862;9.908;2022-10-23T15:53:21;6.05;;;2.10;;
64875;SDS011;51369;49.862;9.908;2022-10-23T15:55:47;7.63;;;2.42;;
64875;SDS011;51369;49.862;9.908;2022-10-23T15:58:12;5.22;;;2.40;;
64875;SDS011;51369;49.862;9.908;2022-10-23T16:00:37;4.05;;;2.38;;
64875;SDS011;51369;49.862;9.908;2022-10-23T16:03:04;2.67;;;1.88;;
64875;SDS011;51369;49.862;9.908;2022-10-23T16:05:29;4.53;;;1.75;;
64875;SDS011;51369;49.862;9.908;2022-10-23T16:07:54;4.65;;;2.55;;
64875;SDS011;51369;49.862;9.908;2022-10-23T16:10:20;8.82;;;2.05;;
64875;SDS011;51369;49.862;9.908;2022-10-23T16:12:46;2.78;;;1.98;;
64875;SDS011;51369;49.862;9.908;2022-10-23T16:15:12;4.45;;;2.03;;
64875;SDS011;51369;49.862;9.908;2022-10-23T16:17:37;3.72;;;2.00;;
64875;SDS011;51369;49.862;9.908;2022-10-23T16:20:03;2.22;;;1.80;;
64875;SDS011;51369;49.862;9.908;2022-10-23T16:22:28;6.32;;;2.20;;
64875;SDS011;51369;49.862;9.908;2022-10-23T16:24:54;5.57;;;2.10;;
64875;SDS011;51369;49.862;9.908;2022-10-23T16:27:19;7.47;;;2.50;;
64875;SDS011;51369;49.862;9.908;2022-10-23T16:29:45;5.03;;;2.15;;
64875;SDS011;51369;49.862;9.908;2022-10-23T16:32:10;2.88;;;2.10;;
64875;SDS011;51369;49.862;9.908;2022-10-23T16:34:35;4.07;;;2.00;;
64875;SDS011;51369;49.862;9.908;2022-10-23T16:37:01;3.92;;;2.00;;
64875;SDS011;51369;49.862;9.908;2022-10-23T16:39:44;3.67;;;2.10;;
64875;SDS011;51369;49.862;9.908;2022-10-23T16:42:30;3.60;;;1.83;;
64875;SDS011;51369;49.862;9.908;2022-10-23T16:45:25;2.55;;;1.67;;
64875;SDS011;51369;49.862;9.908;2022-10-23T16:47:50;4.93;;;1.50;;
64875;SDS011;51369;49.862;9.908;2022-10-23T16:50:15;6.68;;;1.80;;
64875;SDS011;51369;49.862;9.908;2022-10-23T16:52:41;8.98;;;2.10;;
64875;SDS011;51369;49.862;9.908;2022-10-23T16:55:06;3.47;;;2.15;;
64875;SDS011;51369;49.862;9.908;2022-10-23T16:57:35;3.83;;;2.03;;
64875;SDS011;51369;49.862;9.908;2022-10-23T17:00:01;2.38;;;1.88;;
64875;SDS011;51369;49.862;9.908;2022-10-23T17:02:28;4.15;;;1.90;;